Beverly Farms, Massachusetts
Current Conditions -  °F | °C
As of 2:53 AM on Monday 22 Dec 2014 (Local Time) from KBVY Reporting Station
Overcast Overcast  
Wind Chill: 26°   Ceiling: 5500
Heat Index: 32°   Visibility: 10mi
Dew Point: 24°   Wind: 7mph
Humidity: 73%   Direction: 360°N
Pressure: 30.36"   Gusts: NA
Location:  42.5685°N, 70.8619°W
Report Text: KBVY 220753Z AUTO 36006KT 10SM OVC055 00/M04 A3036 RMK AO2 SLP276 T00001044
Loading
Personal Weather Stations






























Interactive Weather Map New forecast layout! Learn more

10-Day Weather Forecast

Advertisements
Track Severe Weather on mobile